Time,TemperatureF,DewpointF,PressureIn,WindDirection,WindDirectionDegrees,WindSpeedMPH,WindSpeedGustMPH,Humidity,HourlyPrecipIn,Conditions,Clouds,dailyrainin,SolarRadiationWatts/m^2,SoftwareType,DateUTC
2013-08-03 00:12:00,70.0,46.0,-100.00,West,277,6.0,8.0,42,0.00,,,0.00,0.000000,,2013-08-03 06:12:00,
2013-08-03 00:22:00,70.0,46.0,-100.00,West,277,6.0,8.0,42,0.00,,,0.00,0.000000,,2013-08-03 06:22:00,
2013-08-03 00:32:00,70.0,46.0,-100.00,West,277,6.0,8.0,42,0.00,,,0.00,0.000000,,2013-08-03 06:32:00,
2013-08-03 00:42:00,70.0,46.0,-100.00,West,277,6.0,8.0,42,0.00,,,0.00,0.000000,,2013-08-03 06:42:00,
2013-08-03 00:51:00,65.0,47.0,-100.00,SW,232,5.0,8.0,52,0.00,,,0.00,0.000000,,2013-08-03 06:51:00,
2013-08-03 01:12:00,65.0,47.0,-100.00,SW,232,5.0,8.0,52,0.00,,,0.00,0.000000,,2013-08-03 07:12:00,
2013-08-03 01:22:00,65.0,47.0,-100.00,SW,232,5.0,8.0,52,0.00,,,0.00,0.000000,,2013-08-03 07:22:00,
2013-08-03 01:32:00,65.0,47.0,-100.00,SW,232,5.0,8.0,52,0.00,,,0.00,0.000000,,2013-08-03 07:32:00,
2013-08-03 01:43:00,65.0,47.0,-100.00,SW,232,5.0,8.0,52,0.00,,,0.00,0.000000,,2013-08-03 07:43:00,
2013-08-03 01:51:00,66.0,47.0,-100.00,WNW,303,5.0,7.0,51,0.00,,,0.00,0.000000,,2013-08-03 07:51:00,
2013-08-03 02:22:00,66.0,47.0,-100.00,WNW,303,5.0,7.0,51,0.00,,,0.00,0.000000,,2013-08-03 08:22:00,
2013-08-03 02:32:00,66.0,47.0,-100.00,WNW,303,5.0,7.0,51,0.00,,,0.00,0.000000,,2013-08-03 08:32:00,
2013-08-03 02:43:00,66.0,47.0,-100.00,WNW,303,5.0,7.0,51,0.00,,,0.00,0.000000,,2013-08-03 08:43:00,
2013-08-03 02:51:00,65.0,47.0,-100.00,NNE,12,2.0,11.0,52,0.00,,,0.00,0.000000,,2013-08-03 08:51:00,
2013-08-03 03:12:00,65.0,47.0,-100.00,NNE,12,2.0,11.0,52,0.00,,,0.00,0.000000,,2013-08-03 09:12:00,
2013-08-03 03:22:00,65.0,47.0,-100.00,NNE,12,2.0,11.0,52,0.00,,,0.00,0.000000,,2013-08-03 09:22:00,
2013-08-03 03:32:00,65.0,47.0,-100.00,NNE,12,2.0,11.0,52,0.00,,,0.00,0.000000,,2013-08-03 09:32:00,
2013-08-03 03:43:00,65.0,47.0,-100.00,NNE,12,2.0,11.0,52,0.00,,,0.00,0.000000,,2013-08-03 09:43:00,
2013-08-03 03:51:00,68.0,47.0,-100.00,South,174,4.0,7.0,47,0.00,,,0.00,0.000000,,2013-08-03 09:51:00,
2013-08-03 04:22:00,68.0,47.0,-100.00,South,174,4.0,7.0,47,0.00,,,0.00,0.000000,,2013-08-03 10:22:00,
2013-08-03 04:32:00,68.0,47.0,-100.00,South,174,4.0,7.0,47,0.00,,,0.00,0.000000,,2013-08-03 10:32:00,
2013-08-03 04:42:00,68.0,47.0,-100.00,South,174,4.0,7.0,47,0.00,,,0.00,0.000000,,2013-08-03 10:42:00,
2013-08-03 04:51:00,65.0,46.0,-100.00,NNE,30,2.0,11.0,50,0.00,,,0.00,0.000000,,2013-08-03 10:51:00,
2013-08-03 05:12:00,65.0,46.0,-100.00,NNE,30,2.0,11.0,50,0.00,,,0.00,0.000000,,2013-08-03 11:12:00,
2013-08-03 05:22:00,65.0,46.0,-100.00,NNE,30,2.0,11.0,50,0.00,,,0.00,0.000000,,2013-08-03 11:22:00,
2013-08-03 05:32:00,65.0,46.0,-100.00,NNE,30,2.0,11.0,50,0.00,,,0.00,0.000000,,2013-08-03 11:32:00,
2013-08-03 05:43:00,65.0,46.0,-100.00,NNE,30,2.0,11.0,50,0.00,,,0.00,0.000000,,2013-08-03 11:43:00,
2013-08-03 05:51:00,62.0,45.0,-100.00,West,265,6.0,10.0,54,0.00,,,0.00,0.000000,,2013-08-03 11:51:00,
2013-08-03 06:12:00,62.0,45.0,-100.00,West,265,6.0,10.0,54,0.00,,,0.00,0.000000,,2013-08-03 12:12:00,
2013-08-03 06:22:00,62.0,45.0,-100.00,West,265,6.0,10.0,54,0.00,,,0.00,0.000000,,2013-08-03 12:22:00,
2013-08-03 06:33:00,62.0,45.0,-100.00,West,265,6.0,10.0,54,0.00,,,0.00,0.000000,,2013-08-03 12:33:00,
2013-08-03 06:43:00,62.0,45.0,-100.00,West,265,6.0,10.0,54,0.00,,,0.00,0.000000,,2013-08-03 12:43:00,
2013-08-03 06:51:00,60.0,52.0,-100.00,SSE,150,13.0,22.0,76,0.01,,,0.01,1.000000,,2013-08-03 12:51:00,
2013-08-03 07:12:00,60.0,52.0,-100.00,SSE,150,13.0,22.0,76,0.01,,,0.01,1.000000,,2013-08-03 13:12:00,
2013-08-03 07:22:00,60.0,52.0,-100.00,SSE,150,13.0,22.0,76,0.01,,,0.01,1.000000,,2013-08-03 13:22:00,
2013-08-03 07:33:00,60.0,52.0,-100.00,SSE,150,13.0,22.0,76,0.01,,,0.01,1.000000,,2013-08-03 13:33:00,
2013-08-03 07:43:00,60.0,52.0,-100.00,SSE,150,13.0,22.0,76,0.01,,,0.01,1.000000,,2013-08-03 13:43:00,
2013-08-03 07:51:00,64.0,50.0,-100.00,SE,140,1.0,14.0,60,0.00,,,0.01,51.000000,,2013-08-03 13:51:00,
2013-08-03 08:12:00,64.0,50.0,-100.00,SE,140,1.0,14.0,60,0.00,,,0.01,51.000000,,2013-08-03 14:12:00,
2013-08-03 08:22:00,64.0,50.0,-100.00,SE,140,1.0,14.0,60,0.00,,,0.01,51.000000,,2013-08-03 14:22:00,
2013-08-03 08:33:00,64.0,50.0,-100.00,SE,140,1.0,14.0,60,0.00,,,0.01,51.000000,,2013-08-03 14:33:00,
2013-08-03 08:42:00,64.0,50.0,-100.00,SE,140,1.0,14.0,60,0.00,,,0.01,51.000000,,2013-08-03 14:42:00,
2013-08-03 08:51:00,68.0,51.0,-100.00,NE,56,4.0,7.0,55,0.00,,,0.01,400.000000,,2013-08-03 14:51:00,
2013-08-03 09:12:00,68.0,51.0,-100.00,NE,56,4.0,7.0,55,0.00,,,0.01,400.000000,,2013-08-03 15:12:00,
2013-08-03 09:23:00,68.0,51.0,-100.00,NE,56,4.0,7.0,55,0.00,,,0.01,400.000000,,2013-08-03 15:23:00,
2013-08-03 09:32:00,68.0,51.0,-100.00,NE,56,4.0,7.0,55,0.00,,,0.01,400.000000,,2013-08-03 15:32:00,
2013-08-03 09:43:00,68.0,51.0,-100.00,NE,56,4.0,7.0,55,0.00,,,0.01,400.000000,,2013-08-03 15:43:00,
2013-08-03 09:51:00,73.0,50.0,-100.00,East,89,3.0,7.0,45,0.00,,,0.01,642.000000,,2013-08-03 15:51:00,
2013-08-03 10:12:00,73.0,50.0,-100.00,East,89,3.0,7.0,45,0.00,,,0.01,642.000000,,2013-08-03 16:12:00,
2013-08-03 10:23:00,73.0,50.0,-100.00,East,89,3.0,7.0,45,0.00,,,0.01,642.000000,,2013-08-03 16:23:00,
2013-08-03 10:33:00,73.0,50.0,-100.00,East,89,3.0,7.0,45,0.00,,,0.01,642.000000,,2013-08-03 16:33:00,
2013-08-03 10:43:00,73.0,50.0,-100.00,East,89,3.0,7.0,45,0.00,,,0.01,642.000000,,2013-08-03 16:43:00,
2013-08-03 10:51:00,76.0,49.0,-100.00,NE,45,4.0,9.0,38,0.00,,,0.01,833.000000,,2013-08-03 16:51:00,
2013-08-03 11:12:00,76.0,49.0,-100.00,NE,45,4.0,9.0,38,0.00,,,0.01,833.000000,,2013-08-03 17:12:00,
2013-08-03 11:22:00,76.0,49.0,-100.00,NE,45,4.0,9.0,38,0.00,,,0.01,833.000000,,2013-08-03 17:22:00,
2013-08-03 11:32:00,76.0,49.0,-100.00,NE,45,4.0,9.0,38,0.00,,,0.01,833.000000,,2013-08-03 17:32:00,
2013-08-03 11:43:00,76.0,49.0,-100.00,NE,45,4.0,9.0,38,0.00,,,0.01,833.000000,,2013-08-03 17:43:00,
2013-08-03 11:51:00,80.0,49.0,-100.00,West,281,7.0,16.0,34,0.00,,,0.01,973.000000,,2013-08-03 17:51:00,
2013-08-03 12:12:00,80.0,49.0,-100.00,West,281,7.0,16.0,34,0.00,,,0.01,973.000000,,2013-08-03 18:12:00,
2013-08-03 12:22:00,80.0,49.0,-100.00,West,281,7.0,16.0,34,0.00,,,0.01,973.000000,,2013-08-03 18:22:00,
2013-08-03 12:32:00,80.0,49.0,-100.00,West,281,7.0,16.0,34,0.00,,,0.01,973.000000,,2013-08-03 18:32:00,
2013-08-03 12:42:00,80.0,49.0,-100.00,West,281,7.0,16.0,34,0.00,,,0.01,973.000000,,2013-08-03 18:42:00,
2013-08-03 12:51:00,80.0,51.0,-100.00,West,265,12.0,18.0,36,0.00,,,0.01,675.000000,,2013-08-03 18:51:00,
2013-08-03 13:12:00,80.0,51.0,-100.00,West,265,12.0,18.0,36,0.00,,,0.01,675.000000,,2013-08-03 19:12:00,
2013-08-03 13:22:00,80.0,51.0,-100.00,West,265,12.0,18.0,36,0.00,,,0.01,675.000000,,2013-08-03 19:22:00,
2013-08-03 13:32:00,80.0,51.0,-100.00,West,265,12.0,18.0,36,0.00,,,0.01,675.000000,,2013-08-03 19:32:00,
2013-08-03 13:43:00,80.0,51.0,-100.00,West,265,12.0,18.0,36,0.00,,,0.01,675.000000,,2013-08-03 19:43:00,
2013-08-03 13:51:00,84.0,49.0,-100.00,SW,224,5.0,16.0,30,0.00,,,0.01,848.000000,,2013-08-03 19:51:00,
2013-08-03 14:12:00,84.0,49.0,-100.00,SW,224,5.0,16.0,30,0.00,,,0.01,848.000000,,2013-08-03 20:12:00,
2013-08-03 14:22:00,84.0,49.0,-100.00,SW,224,5.0,16.0,30,0.00,,,0.01,848.000000,,2013-08-03 20:22:00,
2013-08-03 14:32:00,84.0,49.0,-100.00,SW,224,5.0,16.0,30,0.00,,,0.01,848.000000,,2013-08-03 20:32:00,
2013-08-03 14:42:00,84.0,49.0,-100.00,SW,224,5.0,16.0,30,0.00,,,0.01,848.000000,,2013-08-03 20:42:00,
2013-08-03 14:51:00,83.0,53.0,-100.00,South,183,7.0,13.0,36,0.00,,,0.01,531.000000,,2013-08-03 20:51:00,
2013-08-03 15:12:00,83.0,53.0,-100.00,South,183,7.0,13.0,36,0.00,,,0.01,531.000000,,2013-08-03 21:12:00,
2013-08-03 15:22:00,83.0,53.0,-100.00,South,183,7.0,13.0,36,0.00,,,0.01,531.000000,,2013-08-03 21:22:00,
2013-08-03 15:32:00,83.0,53.0,-100.00,South,183,7.0,13.0,36,0.00,,,0.01,531.000000,,2013-08-03 21:32:00,
2013-08-03 15:42:00,83.0,53.0,-100.00,South,183,7.0,13.0,36,0.00,,,0.01,531.000000,,2013-08-03 21:42:00,
2013-08-03 15:51:00,87.0,48.0,-100.00,NW,310,7.0,15.0,26,0.00,,,0.01,968.000000,,2013-08-03 21:51:00,
2013-08-03 16:12:00,87.0,48.0,-100.00,NW,310,7.0,15.0,26,0.00,,,0.01,968.000000,,2013-08-03 22:12:00,
2013-08-03 16:22:00,87.0,48.0,-100.00,NW,310,7.0,15.0,26,0.00,,,0.01,968.000000,,2013-08-03 22:22:00,
2013-08-03 16:33:00,87.0,48.0,-100.00,NW,310,7.0,15.0,26,0.00,,,0.01,968.000000,,2013-08-03 22:33:00,
2013-08-03 16:43:00,87.0,48.0,-100.00,NW,310,7.0,15.0,26,0.00,,,0.01,968.000000,,2013-08-03 22:43:00,
2013-08-03 16:51:00,84.0,45.0,-100.00,WNW,296,8.0,19.0,26,0.00,,,0.01,626.000000,,2013-08-03 22:51:00,
2013-08-03 17:12:00,84.0,45.0,-100.00,WNW,296,8.0,19.0,26,0.00,,,0.01,626.000000,,2013-08-03 23:12:00,
2013-08-03 17:22:00,84.0,45.0,-100.00,WNW,296,8.0,19.0,26,0.00,,,0.01,626.000000,,2013-08-03 23:22:00,
2013-08-03 17:32:00,84.0,45.0,-100.00,WNW,296,8.0,19.0,26,0.00,,,0.01,626.000000,,2013-08-03 23:32:00,
2013-08-03 17:42:00,84.0,45.0,-100.00,WNW,296,8.0,19.0,26,0.00,,,0.01,626.000000,,2013-08-03 23:42:00,
2013-08-03 17:51:00,86.0,41.0,-100.00,WSW,238,10.0,18.0,21,0.00,,,0.01,445.000000,,2013-08-03 23:51:00,
2013-08-03 18:12:00,86.0,41.0,-100.00,WSW,238,10.0,18.0,21,0.00,,,0.01,445.000000,,2013-08-04 00:12:00,
2013-08-03 18:22:00,86.0,41.0,-100.00,WSW,238,10.0,18.0,21,0.00,,,0.01,445.000000,,2013-08-04 00:22:00,
2013-08-03 18:32:00,86.0,41.0,-100.00,WSW,238,10.0,18.0,21,0.00,,,0.01,445.000000,,2013-08-04 00:32:00,
2013-08-03 18:42:00,86.0,41.0,-100.00,WSW,238,10.0,18.0,21,0.00,,,0.01,445.000000,,2013-08-04 00:42:00,
2013-08-03 18:51:00,86.0,45.0,-100.00,West,271,7.0,17.0,24,0.00,,,0.01,417.000000,,2013-08-04 00:51:00,
2013-08-03 19:12:00,86.0,45.0,-100.00,West,271,7.0,17.0,24,0.00,,,0.01,417.000000,,2013-08-04 01:12:00,
2013-08-03 19:22:00,86.0,45.0,-100.00,West,271,7.0,17.0,24,0.00,,,0.01,417.000000,,2013-08-04 01:22:00,
2013-08-03 19:32:00,86.0,45.0,-100.00,West,271,7.0,17.0,24,0.00,,,0.01,417.000000,,2013-08-04 01:32:00,
2013-08-03 19:42:00,86.0,45.0,-100.00,West,271,7.0,17.0,24,0.00,,,0.01,417.000000,,2013-08-04 01:42:00,
2013-08-03 19:51:00,83.0,42.0,-100.00,WNW,284,5.0,13.0,24,0.00,,,0.01,196.000000,,2013-08-04 01:51:00,
2013-08-03 20:12:00,83.0,42.0,-100.00,WNW,284,5.0,13.0,24,0.00,,,0.01,196.000000,,2013-08-04 02:12:00,
2013-08-03 20:22:00,83.0,42.0,-100.00,WNW,284,5.0,13.0,24,0.00,,,0.01,196.000000,,2013-08-04 02:22:00,
2013-08-03 20:32:00,83.0,42.0,-100.00,WNW,284,5.0,13.0,24,0.00,,,0.01,196.000000,,2013-08-04 02:32:00,
2013-08-03 20:42:00,83.0,42.0,-100.00,WNW,284,5.0,13.0,24,0.00,,,0.01,196.000000,,2013-08-04 02:42:00,
2013-08-03 20:51:00,75.0,48.0,-100.00,East,101,7.0,16.0,38,0.00,,,0.01,16.000000,,2013-08-04 02:51:00,
2013-08-03 21:11:00,75.0,48.0,-100.00,East,101,7.0,16.0,38,0.00,,,0.01,16.000000,,2013-08-04 03:11:00,
2013-08-03 21:22:00,75.0,48.0,-100.00,East,101,7.0,16.0,38,0.00,,,0.01,16.000000,,2013-08-04 03:22:00,
2013-08-03 21:32:00,75.0,48.0,-100.00,East,101,7.0,16.0,38,0.00,,,0.01,16.000000,,2013-08-04 03:32:00,
2013-08-03 21:42:00,75.0,48.0,-100.00,East,101,7.0,16.0,38,0.00,,,0.01,16.000000,,2013-08-04 03:42:00,
2013-08-03 21:51:00,70.0,47.0,-100.00,East,96,3.0,17.0,44,0.00,,,0.01,0.000000,,2013-08-04 03:51:00,
2013-08-03 22:12:00,70.0,47.0,-100.00,East,96,3.0,17.0,44,0.00,,,0.01,0.000000,,2013-08-04 04:12:00,
2013-08-03 22:22:00,70.0,47.0,-100.00,East,96,3.0,17.0,44,0.00,,,0.01,0.000000,,2013-08-04 04:22:00,
2013-08-03 22:32:00,70.0,47.0,-100.00,East,96,3.0,17.0,44,0.00,,,0.01,0.000000,,2013-08-04 04:32:00,
2013-08-03 22:42:00,70.0,47.0,-100.00,East,96,3.0,17.0,44,0.00,,,0.01,0.000000,,2013-08-04 04:42:00,
2013-08-03 22:51:00,69.0,47.0,-100.00,ESE,119,3.0,8.0,45,0.00,,,0.01,0.000000,,2013-08-04 04:51:00,
2013-08-03 23:12:00,69.0,47.0,-100.00,ESE,119,3.0,8.0,45,0.00,,,0.01,0.000000,,2013-08-04 05:12:00,
2013-08-03 23:22:00,69.0,47.0,-100.00,ESE,119,3.0,8.0,45,0.00,,,0.01,0.000000,,2013-08-04 05:22:00,
2013-08-03 23:32:00,69.0,47.0,-100.00,ESE,119,3.0,8.0,45,0.00,,,0.01,0.000000,,2013-08-04 05:32:00,
2013-08-03 23:42:00,69.0,47.0,-100.00,ESE,119,3.0,8.0,45,0.00,,,0.01,0.000000,,2013-08-04 05:42:00,
2013-08-03 23:51:00,67.0,49.0,-100.00,East,82,4.0,7.0,52,0.00,,,0.01,0.000000,,2013-08-04 05:51:00,